Date,TemperatureHighF,TemperatureAvgF,TemperatureLowF,DewpointHighF,DewpointAvgF,DewpointLowF,HumidityHigh,HumidityAvg,HumidityLow,PressureMaxIn,PressureMinIn,WindSpeedMaxMPH,WindSpeedAvgMPH,GustSpeedMaxMPH,PrecipitationSumIn
2013-1-1,47,44,39,36,27,10,85,55,22,30.60,30.46,10,3,10,0.13
2013-1-2,48,39,34,35,26,11,92,63,29,30.79,30.55,11,3,11,0.07
2013-1-3,42,34,27,22,9,-7,70,38,14,30.83,30.73,11,3,11,0.00
2013-1-4,51,38,27,22,6,-7,72,34,10,30.81,30.69,14,4,14,0.00
2013-1-5,54,40,28,20,7,-8,59,30,10,30.95,30.77,10,3,10,0.00
2013-1-6,59,46,38,31,17,-1,72,37,10,30.78,30.60,11,4,11,0.01
2013-1-7,52,42,32,23,17,1,65,39,12,31.02,30.71,17,4,17,0.00
2013-1-8,53,42,32,30,24,18,73,52,26,31.04,30.94,10,3,10,0.00
2013-1-9,72,53,37,72,39,28,99,59,42,30.97,29.63,16,4,16,0.01
2013-1-10,64,49,40,45,24,1,97,48,10,30.14,29.93,14,2,14,0.00
2013-1-11,47,42,35,46,36,24,99,80,53,30.06,29.66,9,2,9,0.05
2013-1-12,56,49,45,52,48,45,99,96,79,29.73,29.65,8,2,8,0.00
2013-1-13,72,59,50,63,57,50,99,93,62,29.69,29.56,14,4,14,0.01
2013-1-14,65,57,43,62,54,40,97,88,81,29.81,29.56,22,7,22,0.58
2013-1-15,72,42,38,72,41,38,99,97,88,30.02,29.78,17,6,17,0.81
2013-1-16,44,40,36,44,39,36,99,97,92,29.83,29.62,14,4,14,0.31
2013-1-17,45,40,32,45,39,32,99,97,87,29.84,29.69,17,3,17,0.67
2013-1-18,45,35,30,36,21,-9,99,66,12,30.24,29.81,14,2,14,0.24
2013-1-19,56,42,30,17,9,-4,57,30,10,30.19,29.77,18,6,18,0.06
2013-1-20,63,49,36,16,6,-9,40,19,10,29.78,29.59,23,7,23,0.00
2013-1-21,56,42,28,14,-1,-16,51,19,10,29.81,29.49,17,4,17,0.00
2013-1-22,35,28,19,-6,-21,-29,17,10,10,30.01,29.64,18,6,18,0.00
2013-1-23,35,25,12,12,-17,-30,51,16,10,30.07,29.81,14,3,14,0.00
2013-1-24,30,24,17,19,-4,-28,80,40,10,30.26,29.72,29,8,29,0.00
2013-1-25,26,20,15,15,-1,-25,73,46,10,30.25,29.79,14,3,14,0.00
2013-1-26,45,31,22,19,13,-3,75,52,15,30.15,29.78,8,2,8,0.01
2013-1-27,45,34,24,21,7,-12,68,38,10,30.32,30.14,10,2,10,0.00
2013-1-28,56,43,32,38,26,12,87,54,29,30.22,29.81,21,7,21,0.19
2013-1-29,77,60,46,46,38,29,76,47,18,29.86,29.72,11,5,11,0.00
2013-1-30,72,69,63,71,54,47,99,59,50,30.14,29.33,31,13,31,0.02
2013-1-31,67,47,31,61,9,-15,89,29,10,30.02,29.27,27,10,30,0.40
2013-2-1,38,32,21,15,-10,-26,44,18,10,30.46,29.83,24,8,24,0.00
2013-2-2,37,27,16,21,-2,-22,72,34,10,30.46,30.05,16,4,16,0.00
2013-2-3,46,35,28,21,11,-7,71,40,12,30.06,29.88,17,3,17,0.00
2013-2-4,42,34,23,9,-4,-16,53,22,10,30.19,29.98,15,4,15,0.00
2013-2-5,60,48,41,16,6,-3,30,19,10,29.98,29.88,15,5,15,0.00
2013-2-6,60,45,30,24,14,-3,73,35,10,30.40,29.97,12,3,12,0.00
2013-2-7,45,38,31,31,19,10,79,48,27,30.48,30.20,15,5,15,0.06
2013-2-8,52,42,36,36,29,7,91,66,23,30.20,29.80,18,8,18,0.47
2013-2-9,53,40,30,14,-3,-17,47,18,10,30.44,30.00,19,6,19,0.00
2013-2-10,51,38,24,14,-4,-15,50,19,10,30.56,30.30,11,3,11,0.00
2013-2-11,62,51,39,53,43,14,92,73,31,30.31,29.85,23,8,23,0.05
2013-2-12,64,53,42,32,4,-6,39,15,10,30.07,29.87,14,4,14,0.00
2013-2-13,51,48,46,14,5,-5,27,18,10,29.98,29.89,5,1,5,0.00
2013-2-14,58,42,30,36,21,-3,88,54,10,30.12,29.86,8,3,8,0.00
2013-2-15,66,49,33,30,14,-4,74,34,10,30.13,29.96,23,5,23,0.00
2013-2-16,41,35,31,31,27,-1,87,72,25,30.09,29.90,17,6,17,0.15
2013-2-17,37,30,24,6,-12,-24,44,18,10,30.32,29.92,21,8,21,0.01
2013-2-18,51,35,18,-1,-9,-25,40,16,10,30.48,30.28,15,4,15,0.00
2013-2-19,50,42,34,43,23,-13,85,54,10,30.29,29.84,17,7,17,0.08
2013-2-20,51,39,28,31,-2,-17,74,21,10,30.23,29.94,17,5,17,0.00
2013-2-21,49,35,25,0,-7,-16,33,17,10,30.38,30.21,16,5,16,0.00
2013-2-22,39,34,32,29,12,-10,82,43,15,30.45,30.27,11,4,11,0.01
2013-2-23,44,39,34,40,35,29,92,88,80,30.28,29.88,12,4,12,0.12
2013-2-24,63,47,34,42,23,-7,95,52,10,30.18,29.86,27,5,27,0.01
2013-2-25,48,36,28,17,3,-11,57,28,10,30.31,30.18,16,4,16,0.00
2013-2-26,71,51,49,71,50,48,99,95,93,30.37,29.84,15,4,17,0.41
2013-2-27,62,50,39,48,30,0,97,59,10,30.01,29.83,18,5,18,0.01
2013-2-28,54,44,38,31,12,-7,64,33,10,30.06,29.92,18,5,18,0.00
2013-3-1,48,40,33,19,9,-5,54,29,11,30.19,30.05,17,5,17,0.00
2013-3-2,41,36,32,13,7,-3,45,31,17,30.20,30.11,14,5,14,0.00
2013-3-3,49,36,27,13,-1,-13,53,24,10,30.23,30.09,18,5,18,0.00
2013-3-4,54,37,23,5,-5,-16,41,19,10,30.35,30.22,17,4,17,0.00
2013-3-5,52,39,28,32,7,-11,87,36,10,30.39,29.99,21,4,21,0.30
2013-3-6,71,35,32,71,32,30,99,88,78,30.14,29.71,45,15,45,1.10
2013-3-7,71,71,71,71,71,6,99,99,99,29.92,29.84,8,8,8,0.01
2013-3-8,51,45,40,12,4,-6,31,19,10,30.02,29.89,31,14,31,0.00
2013-3-9,67,47,36,15,6,-7,42,23,10,30.10,30.00,17,4,17,0.00
2013-3-10,70,50,30,33,11,-4,66,28,10,30.10,29.97,13,3,13,0.00
2013-3-11,68,54,41,41,36,25,90,55,21,30.02,29.70,21,6,21,0.00
2013-3-12,72,59,44,59,46,20,92,65,34,29.71,29.47,30,9,30,0.38
2013-3-13,56,46,32,30,5,-15,76,25,10,29.85,29.67,22,7,22,0.00
2013-3-14,55,41,28,3,-6,-16,33,15,10,29.94,29.80,23,6,23,0.09
2013-3-15,61,46,31,12,-2,-16,28,14,10,29.99,29.64,19,5,19,0.00
2013-3-16,73,56,46,53,32,11,91,46,14,29.69,29.40,34,5,34,0.27
2013-3-17,47,39,33,38,32,29,86,77,69,30.11,29.69,11,5,13,0.25
2013-3-18,36,34,32,33,31,29,92,89,86,30.12,29.70,16,4,16,0.46
2013-3-19,69,47,34,35,20,-5,92,52,10,29.80,29.56,27,5,27,0.01
2013-3-20,60,50,33,3,-5,-18,10,10,10,29.89,29.59,26,6,26,0.00
2013-3-21,49,37,28,23,-4,-21,73,21,10,29.77,29.55,27,9,27,0.00
2013-3-22,54,38,25,-1,-11,-22,23,12,10,29.84,29.72,17,5,17,0.00
2013-3-23,61,44,27,17,0,-14,53,19,10,29.89,29.74,16,3,16,0.00
2013-3-24,44,37,32,29,15,-11,86,47,10,29.82,29.45,15,4,15,0.02
2013-3-25,39,35,32,32,30,27,90,81,65,29.54,29.34,11,2,11,0.13
2013-3-26,51,41,30,31,11,-7,84,38,10,29.86,29.54,21,5,21,0.00
2013-3-27,54,43,31,20,4,-10,58,25,10,30.00,29.85,18,6,18,0.00
2013-3-28,55,44,32,15,2,-7,47,21,10,30.09,29.96,21,6,21,0.00
2013-3-29,62,48,37,18,6,-5,43,21,10,30.12,29.98,19,4,19,0.00
2013-3-30,69,53,36,22,10,-4,53,22,10,30.07,29.92,14,3,14,0.00
2013-3-31,57,50,46,49,36,8,87,62,19,29.95,29.58,13,4,13,0.14
2013-4-1,73,58,45,49,23,-7,91,40,10,29.82,29.57,22,7,22,0.01
2013-4-2,60,47,32,16,-1,-12,47,15,10,30.00,29.81,23,4,23,0.00
2013-4-3,61,46,30,8,-2,-16,39,15,10,30.21,29.99,24,5,24,0.00
2013-4-4,53,41,31,33,2,-16,87,26,10,30.26,29.88,17,4,17,0.37
2013-4-5,70,51,36,37,19,-2,91,45,10,29.88,29.67,18,6,18,0.19
2013-4-6,67,51,41,20,0,-11,37,13,10,30.15,29.86,20,7,20,0.00
2013-4-7,74,56,35,29,15,2,68,27,10,30.14,29.86,22,7,22,0.00
2013-4-8,84,70,56,38,24,13,48,21,10,29.93,29.80,17,6,17,0.00
2013-4-9,91,76,62,44,30,16,51,21,10,29.94,29.80,16,6,16,0.00
2013-4-10,94,80,68,71,30,20,99,19,10,30.03,29.78,21,8,21,0.00
2013-4-11,88,77,66,50,36,20,57,26,10,29.86,29.71,21,8,21,0.00
2013-4-12,88,75,65,64,45,12,90,44,10,29.72,29.50,21,8,21,0.46
2013-4-13,77,64,48,47,19,5,64,22,10,29.90,29.63,24,5,24,0.00
2013-4-14,63,57,57,22,20,4,26,24,10,30.07,29.89,9,2,9,0.00
2013-4-15,68,59,52,49,38,3,82,52,10,30.22,30.03,14,5,14,0.07
2013-4-16,80,66,57,52,46,33,74,51,22,30.26,30.12,14,3,14,0.00
2013-4-17,83,72,63,55,47,38,74,46,21,30.15,30.05,11,6,11,0.00
2013-4-18,81,63,59,54,50,25,80,67,14,30.16,29.97,14,5,14,0.00
2013-4-19,83,71,64,63,55,16,89,61,10,29.98,29.59,25,9,25,0.40
2013-4-20,71,58,50,59,19,-3,81,28,10,30.27,29.67,15,4,15,0.00
2013-4-21,61,50,42,16,4,-5,34,16,10,30.53,30.26,23,6,23,0.00
2013-4-22,60,49,36,36,19,3,71,34,10,30.51,30.31,20,8,20,0.00
2013-4-23,71,53,47,40,32,11,73,48,10,30.31,29.61,13,7,13,0.00
2013-4-24,80,64,45,45,34,13,86,44,10,29.77,29.52,24,7,24,0.00
2013-4-25,74,61,50,44,17,-2,46,21,10,29.94,29.59,22,6,22,0.00
2013-4-26,77,58,11,41,21,0,76,32,10,30.11,29.86,16,3,16,0.00
2013-4-27,78,63,49,35,19,6,54,22,10,29.99,29.85,11,3,11,0.09
2013-4-28,68,59,51,43,22,4,63,29,10,29.88,29.71,11,3,11,0.00
2013-4-29,55,55,55,43,43,43,63,63,63,29.73,29.56,3,3,4,0.00
2013-4-30,65,59,55,56,52,43,98,80,59,29.82,29.63,17,6,17,0.02
2013-5-1,71,58,0,54,29,8,92,43,10,30.00,29.67,17,4,17,0.01
2013-5-2,72,37,0,72,40,8,99,51,99,30.01,29.57,11,4,11,0.02
2013-5-3,73,59,46,71,38,8,99,59,10,29.85,29.77,24,8,24,0.02
2013-5-4,67,57,50,40,31,26,68,38,24,29.81,29.66,17,9,17,0.02
2013-5-5,65,54,35,44,35,-4,73,50,18,29.70,29.62,20,8,20,0.00
2013-5-6,69,59,53,58,52,44,89,77,43,29.64,29.45,24,8,24,0.09
2013-5-7,76,65,57,63,56,42,99,79,30,29.48,29.33,15,6,15,0.43
2013-5-8,71,62,55,60,49,39,99,67,32,29.52,29.43,12,4,12,0.04
2013-5-9,66,66,66,43,43,43,43,43,43,29.53,29.45,6,6,8,0.04
2013-5-10,90,77,66,71,37,21,99,28,10,29.98,29.50,15,6,15,17.31
2013-5-11,83,76,69,56,48,-44,63,38,20,29.83,29.63,18,6,18,17.31
2013-5-12,72,66,61,61,55,52,97,69,49,29.95,29.63,8,3,8,0.27
2013-5-13,71,64,45,71,41,-2,99,48,10,30.05,29.91,11,3,11,18.79
2013-5-14,76,65,44,28,10,2,51,13,10,30.11,29.92,11,4,11,0.00
2013-5-15,91,74,58,46,26,4,32,18,10,29.93,29.62,17,7,19,0.00
2013-5-16,94,77,65,62,44,21,87,42,10,29.81,29.66,21,3,21,0.31
2013-5-17,90,74,63,62,38,12,92,40,10,30.03,29.78,13,3,13,0.00
2013-5-18,70,63,60,62,58,26,99,86,19,30.08,29.98,11,3,11,0.66
2013-5-19,81,70,62,67,60,54,99,76,42,30.06,29.94,19,2,19,0.00
2013-5-20,88,74,65,67,61,44,96,67,24,29.98,29.85,14,4,14,0.04
2013-5-21,87,75,69,67,62,54,86,66,34,29.90,29.76,11,4,11,0.00
2013-5-22,88,78,70,66,61,50,83,58,29,29.85,29.72,19,6,19,0.01
2013-5-23,88,75,69,68,61,44,88,65,22,29.82,29.65,18,4,18,0.30
2013-5-24,68,61,49,60,39,3,85,51,10,30.04,29.64,27,7,27,0.06
2013-5-25,76,58,42,26,13,0,49,20,10,30.12,29.97,21,5,21,0.00
2013-5-26,81,63,46,37,19,4,59,22,10,30.13,30.01,15,3,15,0.00
2013-5-27,82,66,50,47,27,8,54,28,10,30.16,30.04,10,2,10,0.00
2013-5-28,91,75,58,54,47,33,72,42,14,30.07,29.95,17,5,17,0.00
2013-5-29,93,81,70,56,46,27,61,34,10,30.03,29.96,19,6,19,0.00
2013-5-30,95,81,69,58,47,27,65,35,10,30.09,30.00,13,5,13,0.00
2013-5-31,94,82,70,59,46,26,67,33,10,30.06,29.92,16,5,16,0.00
2013-6-1,95,83,72,62,48,28,69,35,10,29.95,29.82,17,6,17,0.00
2013-6-2,89,78,69,68,56,43,95,51,21,29.85,29.73,20,6,20,0.40
2013-6-3,89,75,69,72,62,41,99,71,20,29.83,29.67,19,3,19,0.14
2013-6-4,88,71,60,66,32,12,90,33,10,30.00,29.82,18,5,18,0.01
2013-6-5,86,72,57,50,33,17,69,29,10,30.04,29.92,12,3,12,0.00
2013-6-6,81,71,60,66,52,40,85,52,34,29.95,29.68,17,4,17,0.02
2013-6-7,73,70,68,71,69,4,99,96,85,29.92,29.40,18,5,18,1.23
2013-6-8,90,74,67,70,60,25,99,72,10,29.95,29.62,6,1,6,0.34
2013-6-9,90,75,63,72,60,40,99,67,19,30.03,29.91,24,3,24,1.16
2013-6-10,85,75,70,73,68,61,99,81,49,29.95,29.69,19,5,19,0.25
2013-6-11,90,78,70,69,56,34,89,54,15,29.78,29.67,13,4,13,0.01
2013-6-12,96,83,68,65,53,33,67,41,12,29.78,29.67,11,3,11,0.00
2013-6-13,94,83,70,70,63,31,78,54,17,29.69,29.38,18,6,18,0.17
2013-6-15,90,82,69,61,31,20,73,19,10,29.96,29.44,9,3,16,0.28
2013-6-16,93,80,70,64,50,32,74,38,13,29.91,29.78,14,6,14,0.05
2013-6-17,91,78,69,67,62,48,87,61,24,29.86,29.75,11,4,11,0.08
2013-6-18,80,73,66,70,65,60,92,78,64,29.82,29.60,20,4,20,0.41
2013-6-19,82,71,64,69,58,44,99,68,28,30.01,29.74,11,3,11,0.00
2013-6-20,86,74,64,63,40,18,88,40,10,30.14,30.01,10,3,12,0.00
2013-6-21,90,73,56,59,41,17,79,40,10,30.17,30.08,11,3,11,0.00
2013-6-22,91,75,64,68,57,38,87,60,16,30.14,30.02,14,3,14,0.05
2013-6-23,94,79,69,72,64,41,99,67,18,30.07,29.95,11,3,11,0.33
2013-6-24,95,82,73,68,61,38,83,52,15,30.02,29.90,11,4,11,0.00
2013-6-25,98,85,74,68,56,30,80,44,10,29.94,29.78,11,4,11,0.00
2013-6-26,95,87,74,67,57,47,76,42,21,29.83,29.75,11,4,11,0.00
2013-6-27,95,95,95,50,50,50,22,22,22,29.75,29.75,4,4,6,0.00
2013-6-28,95,93,71,72,51,50,99,26,22,30.44,29.75,11,4,11,12.65
2013-6-29,95,82,71,66,52,26,80,45,10,30.07,29.90,13,4,13,0.01
2013-6-30,93,80,71,71,64,48,87,63,23,30.23,30.06,13,4,13,0.14
2013-7-1,88,76,70,74,68,57,99,80,35,30.36,30.21,13,3,13,0.40
2013-7-2,84,76,72,73,69,64,99,80,54,30.56,30.35,15,4,15,0.33
2013-7-3,90,77,72,75,69,57,98,78,36,30.61,30.52,14,3,14,0.66
2013-7-4,96,83,74,74,61,38,99,56,15,30.64,30.53,14,5,14,0.01
2013-7-5,94,83,73,68,61,48,83,51,22,30.62,30.50,11,5,13,0.00
2013-7-6,96,84,76,70,59,28,79,47,10,30.58,30.45,14,4,14,0.00
2013-7-7,94,84,76,68,61,49,75,49,23,30.51,30.37,16,5,16,0.00
2013-7-8,94,81,72,70,61,36,88,55,13,30.50,30.41,11,3,11,0.05
2013-7-9,94,83,74,69,63,46,80,54,22,30.48,30.37,10,3,10,0.00
2013-7-10,95,81,73,72,65,51,96,61,25,30.42,30.25,21,4,21,0.44
2013-7-11,86,76,71,72,68,58,98,76,39,30.31,30.23,9,3,9,0.12
2013-7-12,78,73,67,70,65,61,96,77,57,30.41,30.24,14,5,14,0.33
2013-7-13,90,77,68,71,64,54,96,67,33,30.61,30.40,8,3,8,0.01
2013-7-14,94,82,72,77,60,28,99,58,10,30.69,30.61,9,2,9,0.00
2013-7-15,100,85,72,74,57,31,94,49,10,30.68,30.56,7,2,7,0.00
2013-7-16,99,85,74,72,61,43,90,51,16,30.59,30.50,15,3,15,0.31
2013-7-17,99,86,74,79,61,31,99,52,10,30.57,30.45,11,2,11,0.01
2013-7-18,104,88,75,74,58,33,91,45,10,30.50,30.37,8,2,8,0.00
2013-7-19,97,88,77,71,62,44,79,45,19,30.41,30.26,14,4,14,0.00
2013-7-20,97,85,78,67,62,46,66,49,19,30.30,30.20,14,6,14,0.00
2013-7-21,96,85,76,69,62,47,77,51,20,30.29,30.23,11,4,11,0.00
2013-7-24,89,89,89,56,56,56,33,33,33,30.08,30.08,7,7,7,0.00
2013-7-25,89,89,89,56,56,56,33,33,33,30.08,30.08,7,7,7,0.00
2013-7-26,92,74,60,58,44,21,82,43,10,30.07,29.98,10,2,10,0.00
2013-7-27,87,77,67,65,56,45,87,52,23,30.03,29.88,14,3,14,0.00
2013-7-28,94,78,69,68,58,28,90,56,10,29.95,29.83,13,3,13,0.43
2013-7-29,71,69,67,69,66,57,98,90,70,30.03,29.94,8,2,8,0.01
2013-7-31,72,70,69,67,66,64,93,85,75,30.03,29.98,9,2,9,0.30
2013-8-1,93,73,68,75,66,44,99,83,22,29.99,29.78,14,3,20,0.96
2013-8-2,93,79,66,72,49,24,99,50,10,29.95,29.82,15,2,15,0.01
2013-8-3,93,84,70,60,41,26,72,31,10,29.95,29.89,6,3,6,0.00
2013-8-4,92,92,92,28,28,28,10,10,10,29.90,29.90,3,3,4,0.00
2013-8-5,92,92,92,28,28,28,10,10,10,29.90,29.90,3,3,4,0.00
2013-8-6,92,92,92,28,28,28,10,10,10,29.90,29.90,3,3,4,0.00
2013-8-7,92,92,92,28,28,28,10,10,10,29.90,29.90,3,3,4,0.00
2013-8-8,92,92,92,28,28,28,10,10,10,29.90,29.90,3,3,4,0.00
2013-8-9,92,92,92,28,28,28,10,10,10,29.90,29.90,3,3,4,0.00
2013-8-10,92,86,71,71,41,28,99,33,10,30.00,29.90,9,3,9,1.19
2013-8-11,92,77,70,72,67,52,99,74,27,30.01,29.90,8,1,8,0.02
2013-8-12,94,82,71,75,58,28,99,56,10,29.94,29.82,12,2,12,0.00
2013-8-13,93,81,74,70,62,44,76,57,20,29.82,29.64,9,3,9,0.13
2013-8-14,79,70,60,69,34,11,87,34,10,30.00,29.70,21,7,21,0.01
2013-8-15,84,67,58,53,39,15,73,42,10,30.08,29.99,10,3,10,0.00
2013-8-16,80,68,56,56,43,15,88,49,10,30.10,30.01,13,2,13,0.00
2013-8-17,80,70,61,64,51,43,86,52,29,30.14,30.06,15,5,15,0.13
2013-8-18,68,66,64,65,63,61,97,91,85,30.12,30.04,13,5,16,0.48
2013-8-19,76,68,64,66,64,61,99,86,61,30.11,29.98,8,1,8,0.09
2013-8-20,93,78,68,73,61,34,99,64,13,30.09,30.00,8,2,8,0.00
2013-8-21,95,80,69,75,62,40,99,62,16,30.12,29.98,11,2,11,0.02
2013-8-22,96,82,72,69,55,27,87,48,10,30.02,29.85,11,2,11,0.00
2013-8-23,82,71,61,69,62,54,89,75,43,30.02,29.83,23,3,23,0.78
2013-8-24,85,71,59,63,49,21,99,57,10,30.23,30.01,15,3,15,0.01
2013-8-25,87,71,61,63,44,17,94,49,10,30.31,30.18,12,3,12,0.00
2013-8-26,91,74,57,52,39,21,79,36,10,30.23,29.95,9,3,9,0.00
2013-8-27,96,79,66,69,50,28,80,43,10,29.96,29.80,8,2,8,0.04
2013-8-28,83,76,71,73,66,57,99,73,46,29.85,29.72,12,2,12,0.37
2013-8-29,87,76,69,73,65,51,99,72,30,29.92,29.70,22,5,22,0.01
2013-8-30,93,78,66,68,53,27,99,52,10,29.96,29.81,10,2,10,0.00
2013-8-31,92,79,71,66,58,47,79,52,22,29.85,29.71,14,4,14,0.01
2013-9-1,99,81,70,68,58,32,91,55,10,29.78,29.65,8,2,10,0.08
2013-9-2,95,81,72,69,60,29,88,57,10,29.73,29.64,10,3,10,0.00
2013-9-3,90,79,72,68,53,24,85,46,10,29.85,29.64,17,4,17,0.00
2013-9-4,88,74,66,56,38,18,70,32,10,29.99,29.85,16,4,16,0.00
2013-9-5,94,77,62,62,41,20,87,40,10,30.01,29.89,14,3,14,0.00
2013-9-6,84,71,61,49,33,16,65,29,10,30.13,30.00,15,5,15,0.00
2013-9-7,82,72,58,57,40,26,84,40,14,30.04,29.96,11,3,11,0.00
2013-9-8,80,80,71,71,37,33,99,23,18,30.09,29.91,8,5,8,3.47
2013-9-9,85,75,68,63,51,39,75,45,25,30.19,30.00,13,4,13,0.00
2013-9-10,96,81,69,69,56,30,94,52,10,30.20,30.10,11,3,11,0.00
2013-9-11,95,84,73,61,49,26,66,34,10,30.18,30.04,14,4,14,0.00
2013-9-12,96,80,68,68,53,30,91,47,10,30.05,29.76,17,4,32,0.54
2013-9-13,83,73,63,69,44,16,99,48,10,29.93,29.72,17,5,20,0.01
2013-9-14,75,63,53,41,27,9,62,31,10,30.17,29.92,21,6,21,0.00
2013-9-15,84,66,49,47,32,14,78,38,10,30.27,30.11,11,2,11,0.00
2013-9-16,82,67,57,52,47,40,66,49,23,30.23,30.08,14,4,14,0.00
2013-9-17,73,61,50,48,32,8,75,42,10,30.41,30.22,17,5,17,0.00
2013-9-18,79,60,45,43,29,10,78,41,10,30.35,30.19,8,2,8,0.00
2013-9-19,83,66,51,56,36,17,82,43,10,30.22,30.09,9,2,9,0.00
2013-9-20,85,70,58,51,41,19,70,41,10,30.11,29.96,9,2,9,0.00
2013-9-21,77,68,60,64,54,41,93,63,29,29.98,29.70,20,4,20,0.58
2013-9-22,78,67,60,64,42,12,99,52,10,29.95,29.73,18,5,18,0.05
2013-9-23,74,60,50,40,28,8,68,37,10,30.11,29.94,17,5,17,0.00
2013-9-24,81,61,48,46,32,11,77,44,10,30.13,29.97,11,2,11,0.00
2013-9-25,82,64,50,57,36,14,89,45,10,29.99,29.88,13,2,13,0.00
2013-9-26,79,66,56,50,37,13,77,43,10,30.07,29.91,14,4,14,0.00
2013-9-27,76,62,52,53,43,19,88,56,14,30.23,30.07,14,3,14,0.00
2013-9-28,71,62,53,48,43,33,80,53,25,30.30,30.20,14,5,14,0.00
2013-9-29,77,66,53,53,40,16,90,47,11,30.21,30.06,16,6,16,0.00
2013-9-30,72,72,72,34,34,34,25,25,25,30.06,30.06,9,9,11,0.00
2013-10-1,72,72,72,34,34,34,25,25,25,30.06,30.06,9,9,11,0.00
2013-10-2,92,74,64,71,36,20,99,28,10,30.06,29.88,9,6,11,2.29
2013-10-3,90,73,59,60,44,22,82,46,10,29.99,29.90,8,1,8,0.00
2013-10-4,93,76,64,58,46,24,77,45,10,29.97,29.88,11,2,11,0.00
2013-10-5,97,78,66,60,47,24,75,44,10,29.96,29.86,10,1,10,0.00
2013-10-6,92,78,66,60,45,21,75,40,10,29.91,29.79,16,4,16,0.00
2013-10-7,78,70,58,63,59,39,86,68,48,29.92,29.70,24,6,25,0.44
2013-10-8,64,58,53,41,33,22,55,40,21,30.12,29.92,20,6,20,0.01
2013-10-9,58,56,54,51,44,37,86,66,49,30.12,29.99,21,9,21,0.60
2013-10-10,57,56,54,54,52,50,90,86,81,29.99,29.80,23,11,23,0.80
2013-10-11,63,60,57,60,56,52,96,86,71,29.82,29.76,19,8,19,0.04
2013-10-12,65,63,61,64,62,59,99,97,91,29.98,29.80,15,7,15,0.05
2013-10-13,61,61,61,61,61,61,99,99,99,29.98,29.97,11,8,11,0.00
2013-10-14,61,61,61,61,61,61,99,99,99,29.98,29.98,8,8,10,0.00
2013-10-15,61,61,61,61,61,61,99,99,99,29.98,29.98,8,8,10,0.00
2013-10-16,61,61,61,61,61,61,99,99,99,29.98,29.98,8,8,10,0.00
2013-10-17,61,61,61,61,61,61,99,99,99,29.98,29.98,8,8,10,0.00
2013-10-18,61,61,61,61,61,61,99,99,99,29.98,29.98,8,8,10,0.00
2013-10-19,61,61,61,61,61,61,99,99,99,29.98,29.98,8,8,10,0.00
2013-10-20,61,61,61,61,61,61,99,99,99,29.98,29.98,8,8,10,0.00
2013-10-21,61,61,61,61,61,61,99,99,99,29.98,29.98,8,8,10,0.00
2013-10-22,61,61,61,61,61,61,99,99,99,29.98,29.98,8,8,10,0.00
2013-10-23,89,59,44,61,53,18,99,85,10,30.22,29.92,11,7,11,0.18
2013-10-24,59,46,37,26,12,-4,63,31,10,30.33,30.09,12,2,12,0.00
2013-10-25,61,45,32,19,8,-9,56,27,10,30.51,30.32,12,2,12,0.00
2013-10-26,61,46,30,22,7,-5,68,29,10,30.51,30.15,19,4,19,0.00
2013-10-27,71,53,41,71,12,-4,99,24,10,30.06,29.91,11,2,11,0.00
2013-10-28,71,52,38,38,25,5,76,44,10,30.19,30.05,8,1,8,0.00
2013-10-29,72,57,49,37,28,8,61,39,10,30.29,30.17,8,2,8,0.00
2013-10-30,68,57,48,49,44,36,82,64,40,30.24,30.08,11,2,11,0.04
2013-10-31,73,64,54,56,46,37,94,57,27,30.11,29.77,16,4,16,0.00
2013-11-1,71,69,66,60,54,46,80,58,43,29.78,29.56,21,7,21,0.01
2013-11-2,76,63,50,56,34,4,90,46,10,29.84,29.56,17,3,17,0.00
2013-11-3,62,49,40,32,14,-10,63,30,10,30.34,29.83,24,4,24,0.00
2013-11-4,51,42,34,14,2,-10,39,21,10,30.55,30.33,16,5,16,0.00
2013-11-5,58,47,38,37,22,10,57,38,18,30.53,30.38,12,3,12,0.00
2013-11-6,69,61,45,42,30,23,81,37,17,30.39,30.26,8,4,8,0.00
2013-11-7,71,63,41,71,27,6,99,28,17,30.26,29.92,14,5,14,0.04
2013-11-8,58,44,34,20,6,-9,48,24,10,30.38,30.13,14,3,14,0.00
2013-11-9,60,46,29,31,5,-6,65,27,10,30.43,30.14,20,4,20,0.00
2013-11-10,71,55,43,12,2,-10,20,12,10,30.32,30.02,22,6,22,0.00
2013-11-11,62,49,33,20,2,-11,47,16,10,30.40,30.12,12,4,12,0.00
2013-11-12,51,43,33,15,-7,-18,26,12,10,30.47,30.02,33,9,33,0.00
2013-11-13,46,35,26,5,-8,-19,37,17,10,30.56,30.46,21,4,22,0.00
2013-11-14,64,44,27,6,-4,-18,40,14,10,30.47,30.32,12,4,12,0.00
2013-11-15,62,51,38,38,0,-13,63,13,10,30.35,30.25,11,3,11,0.02
2013-11-16,58,53,49,54,47,37,97,82,60,30.36,30.28,5,2,5,0.38
2013-11-17,70,60,50,62,50,41,99,73,37,30.29,29.85,17,3,17,0.01
2013-11-18,74,64,52,60,26,-3,81,34,10,29.99,29.78,17,5,17,0.15
2013-11-19,52,46,39,6,-4,-10,24,13,10,30.42,29.98,27,7,27,0.00
2013-11-20,51,41,34,23,8,-9,56,29,10,30.58,30.41,14,6,16,0.00
2013-11-21,59,46,37,31,25,8,58,45,14,30.59,30.45,10,3,10,0.00
2013-11-22,72,59,46,46,33,18,56,40,14,30.45,30.06,17,5,17,0.00
2013-11-23,62,52,40,47,9,-13,59,22,10,30.21,30.05,21,7,21,0.00
2013-11-24,40,30,22,0,-19,-26,23,10,10,30.60,30.21,28,9,28,0.00
2013-11-25,40,30,18,-3,-14,-26,37,15,10,30.65,30.42,12,3,12,0.00
2013-11-26,61,41,35,61,20,-15,99,53,10,30.44,29.59,23,4,23,0.86
2013-11-27,42,38,32,41,28,-17,96,73,12,30.14,29.54,17,6,21,0.96
2013-11-28,45,32,23,11,-5,-19,52,22,10,30.53,30.14,10,2,10,0.00
2013-11-29,47,34,25,13,-4,-17,58,24,10,30.75,30.50,17,4,17,0.00
2013-11-30,44,34,27,12,0,-14,49,26,10,30.75,30.42,11,3,11,0.00
2013-12-1,56,38,25,22,8,-9,64,36,10,30.42,30.06,11,2,11,0.00
2013-12-2,62,44,29,27,11,-4,68,34,10,30.07,29.89,9,1,9,0.00
2013-12-3,62,47,34,30,18,-2,68,39,10,30.05,29.91,9,2,9,0.00
2013-12-4,61,54,48,46,39,26,77,58,36,30.13,30.04,9,2,9,0.00
2013-12-5,65,60,53,57,54,46,91,78,65,30.15,30.01,12,5,12,0.04
2013-12-6,69,58,43,58,49,36,84,72,50,30.16,29.97,24,8,24,0.01
2013-12-7,46,40,34,38,20,6,82,48,19,30.58,30.13,21,9,21,0.37
2013-12-8,34,32,30,26,17,0,81,59,25,30.61,30.34,17,3,17,0.00
2013-12-9,38,35,32,34,30,26,90,81,75,30.34,30.09,8,2,11,0.11
2013-12-10,38,35,30,35,30,12,96,81,45,30.31,30.03,12,3,12,0.31
2013-12-11,49,36,26,12,-1,-15,50,24,10,30.47,30.30,11,3,11,0.00
2013-12-12,41,32,28,8,-9,-22,40,18,10,30.48,30.30,20,4,20,0.00
2013-12-13,51,36,27,0,-14,-22,22,10,10,30.39,30.28,14,4,14,0.00
2013-12-14,46,39,34,40,18,-8,90,50,10,30.36,29.78,13,3,13,0.63
2013-12-15,57,43,35,37,14,-10,89,44,10,30.04,29.70,17,4,17,0.01
2013-12-16,49,38,32,20,7,-9,54,31,10,30.21,30.03,9,3,9,0.00
2013-12-17,55,41,30,34,17,-3,78,47,10,30.17,29.95,15,3,15,0.48
2013-12-18,48,38,29,34,8,-15,79,40,10,30.29,30.00,16,3,16,0.00
2013-12-19,65,48,30,8,-1,-15,38,14,10,30.29,30.18,17,6,17,0.00
2013-12-20,67,56,49,37,13,-6,45,20,10,30.23,30.09,24,8,24,0.00
2013-12-21,72,64,54,54,37,22,65,39,16,30.14,30.02,23,8,23,0.00
2013-12-22,74,67,61,58,53,50,81,62,45,30.10,29.96,21,8,21,0.48
2013-12-23,66,59,41,60,48,7,86,69,24,30.26,29.99,26,7,26,0.27
2013-12-24,46,37,27,10,-5,-22,36,18,10,30.53,30.24,24,9,26,0.00
2013-12-25,39,27,19,8,-15,-26,49,16,10,30.64,30.45,16,4,16,0.00
2013-12-26,53,35,22,13,1,-16,61,29,10,30.45,30.27,18,3,18,0.00
2013-12-27,54,39,25,11,-2,-16,46,22,10,30.51,30.39,11,2,11,0.00
2013-12-28,63,46,30,5,-6,-17,31,11,10,30.42,30.19,17,4,17,0.00
2013-12-29,52,47,42,51,35,-5,94,68,10,30.20,29.64,16,4,16,1.00
2013-12-30,56,44,37,32,20,3,64,41,13,30.22,29.90,13,4,13,0.00
2013-12-31,53,40,29,20,2,-16,61,25,10,30.40,30.19,21,4,21,0.00
2014-1-1,53,37,26,13,3,-10,49,28,10,30.46,30.18,15,2,15,0.00
2014-1-2,47,36,29,30,17,-6,79,50,11,30.18,29.62,10,2,10,0.31